Time,TemperatureF,DewpointF,PressureIn,WindDirection,WindDirectionDegrees,WindSpeedMPH,WindSpeedGustMPH,Humidity,HourlyPrecipIn,Conditions,Clouds,dailyrainin,SolarRadiationWatts/m^2,SoftwareType,DateUTC
2013-01-10 00:02:00,56.0,56.0,-100.00,WSW,250,4.0,13.0,100,0.01,,,-99.99,1.000000,,2013-01-10 06:02:00,
2013-01-10 00:12:00,56.0,56.0,-100.00,WSW,250,4.0,13.0,100,0.01,,,-99.99,1.000000,,2013-01-10 06:12:00,
2013-01-10 00:32:00,57.0,57.0,-100.00,West,281,3.0,10.0,100,0.01,,,0.69,1.000000,,2013-01-10 06:32:00,
2013-01-10 00:42:00,57.0,57.0,-100.00,West,281,3.0,10.0,100,0.01,,,0.69,1.000000,,2013-01-10 06:42:00,
2013-01-10 00:52:00,57.0,57.0,-100.00,West,281,3.0,10.0,100,0.01,,,0.69,1.000000,,2013-01-10 06:52:00,
2013-01-10 01:02:00,57.0,57.0,-100.00,West,281,3.0,10.0,100,0.01,,,0.69,1.000000,,2013-01-10 07:02:00,
2013-01-10 01:12:00,57.0,57.0,-100.00,West,281,3.0,10.0,100,0.01,,,0.69,1.000000,,2013-01-10 07:12:00,
2013-01-10 01:42:00,57.0,57.0,-100.00,West,259,3.0,9.0,100,0.01,,,0.70,1.000000,,2013-01-10 07:42:00,
2013-01-10 01:52:00,57.0,57.0,-100.00,West,259,3.0,9.0,100,0.01,,,0.70,1.000000,,2013-01-10 07:52:00,
2013-01-10 02:02:00,57.0,57.0,-100.00,West,259,3.0,9.0,100,0.01,,,0.70,1.000000,,2013-01-10 08:02:00,
2013-01-10 02:12:00,57.0,57.0,-100.00,West,259,3.0,9.0,100,0.01,,,0.70,1.000000,,2013-01-10 08:12:00,
2013-01-10 02:33:00,57.0,57.0,-100.00,West,281,3.0,7.0,100,0.01,,,0.68,1.000000,,2013-01-10 08:33:00,
2013-01-10 02:42:00,57.0,57.0,-100.00,West,281,3.0,7.0,100,0.01,,,0.68,1.000000,,2013-01-10 08:42:00,
2013-01-10 02:53:00,57.0,57.0,-100.00,West,281,3.0,7.0,100,0.01,,,0.68,1.000000,,2013-01-10 08:53:00,
2013-01-10 03:02:00,57.0,57.0,-100.00,West,281,3.0,7.0,100,0.01,,,0.68,1.000000,,2013-01-10 09:02:00,
2013-01-10 03:12:00,57.0,57.0,-100.00,West,281,3.0,7.0,100,0.01,,,0.68,1.000000,,2013-01-10 09:12:00,
2013-01-10 03:43:00,57.0,57.0,-100.00,West,275,3.0,7.0,100,0.01,,,-99.99,1.000000,,2013-01-10 09:43:00,
2013-01-10 03:52:00,57.0,57.0,-100.00,West,275,3.0,7.0,100,0.01,,,-99.99,1.000000,,2013-01-10 09:52:00,
2013-01-10 04:03:00,57.0,57.0,-100.00,West,275,3.0,7.0,100,0.01,,,-99.99,1.000000,,2013-01-10 10:03:00,
2013-01-10 04:12:00,57.0,57.0,-100.00,West,275,3.0,7.0,100,0.01,,,-99.99,1.000000,,2013-01-10 10:12:00,
2013-01-10 04:33:00,57.0,57.0,-100.00,WNW,299,2.0,7.0,100,0.01,,,0.55,1.000000,,2013-01-10 10:33:00,
2013-01-10 04:42:00,57.0,57.0,-100.00,WNW,299,2.0,7.0,100,0.01,,,0.55,1.000000,,2013-01-10 10:42:00,
2013-01-10 04:52:00,57.0,57.0,-100.00,WNW,299,2.0,7.0,100,0.01,,,0.55,1.000000,,2013-01-10 10:52:00,
2013-01-10 05:02:00,57.0,57.0,-100.00,WNW,299,2.0,7.0,100,0.01,,,0.55,1.000000,,2013-01-10 11:02:00,
2013-01-10 05:12:00,57.0,57.0,-100.00,WNW,299,2.0,7.0,100,0.01,,,0.55,1.000000,,2013-01-10 11:12:00,
2013-01-10 05:43:00,57.0,57.0,-100.00,WSW,253,3.0,9.0,100,0.01,,,0.45,1.000000,,2013-01-10 11:43:00,
2013-01-10 05:53:00,57.0,57.0,-100.00,WSW,253,3.0,9.0,100,0.01,,,0.45,1.000000,,2013-01-10 11:53:00,
2013-01-10 06:03:00,57.0,57.0,-100.00,WSW,253,3.0,9.0,100,0.01,,,0.45,1.000000,,2013-01-10 12:03:00,
2013-01-10 06:12:00,57.0,57.0,-100.00,WSW,253,3.0,9.0,100,0.01,,,0.45,1.000000,,2013-01-10 12:12:00,
2013-01-10 08:33:00,58.0,58.0,-100.00,West,277,3.0,8.0,100,-99.99,,,0.24,7.000000,,2013-01-10 14:33:00,
2013-01-10 08:43:00,58.0,58.0,-100.00,West,277,3.0,8.0,100,-99.99,,,0.24,7.000000,,2013-01-10 14:43:00,
2013-01-10 08:53:00,58.0,58.0,-100.00,West,277,3.0,8.0,100,-99.99,,,0.24,7.000000,,2013-01-10 14:53:00,
2013-01-10 09:03:00,58.0,58.0,-100.00,West,277,3.0,8.0,100,-99.99,,,0.24,7.000000,,2013-01-10 15:03:00,
2013-01-10 09:12:00,58.0,58.0,-100.00,West,277,3.0,8.0,100,-99.99,,,0.24,7.000000,,2013-01-10 15:12:00,
2013-01-10 09:33:00,58.0,58.0,-100.00,WSW,250,3.0,9.0,100,0.01,,,0.23,20.000000,,2013-01-10 15:33:00,
2013-01-10 09:43:00,58.0,58.0,-100.00,WSW,250,3.0,9.0,100,0.01,,,0.23,20.000000,,2013-01-10 15:43:00,
2013-01-10 09:53:00,58.0,58.0,-100.00,WSW,250,3.0,9.0,100,0.01,,,0.23,20.000000,,2013-01-10 15:53:00,
2013-01-10 10:02:00,58.0,58.0,-100.00,WSW,250,3.0,9.0,100,0.01,,,0.23,20.000000,,2013-01-10 16:02:00,
2013-01-10 10:12:00,58.0,58.0,-100.00,WSW,250,3.0,9.0,100,0.01,,,0.23,20.000000,,2013-01-10 16:12:00,
2013-01-10 10:43:00,60.0,60.0,-100.00,West,272,3.0,8.0,100,0.01,,,0.22,55.000000,,2013-01-10 16:43:00,
2013-01-10 10:53:00,60.0,60.0,-100.00,West,272,3.0,8.0,100,0.01,,,0.22,55.000000,,2013-01-10 16:53:00,
2013-01-10 11:03:00,60.0,60.0,-100.00,West,272,3.0,8.0,100,0.01,,,0.22,55.000000,,2013-01-10 17:03:00,
2013-01-10 11:12:00,60.0,60.0,-100.00,West,272,3.0,8.0,100,0.01,,,0.22,55.000000,,2013-01-10 17:12:00,
2013-01-10 11:43:00,63.0,63.0,-100.00,SSW,207,7.0,12.0,100,0.01,,,0.22,66.000000,,2013-01-10 17:43:00,
2013-01-10 11:53:00,63.0,63.0,-100.00,SSW,207,7.0,12.0,100,0.01,,,0.22,66.000000,,2013-01-10 17:53:00,
2013-01-10 12:03:00,63.0,63.0,-100.00,SSW,207,7.0,12.0,100,0.01,,,0.22,66.000000,,2013-01-10 18:03:00,
2013-01-10 12:12:00,63.0,63.0,-100.00,SSW,207,7.0,12.0,100,0.01,,,0.22,66.000000,,2013-01-10 18:12:00,
2013-01-10 12:43:00,64.0,63.0,-100.00,SW,223,5.0,13.0,98,0.01,,,0.22,71.000000,,2013-01-10 18:43:00,
2013-01-10 12:53:00,64.0,63.0,-100.00,SW,223,5.0,13.0,98,0.01,,,0.22,71.000000,,2013-01-10 18:53:00,
2013-01-10 13:03:00,64.0,63.0,-100.00,SW,223,5.0,13.0,98,0.01,,,0.22,71.000000,,2013-01-10 19:03:00,
2013-01-10 13:13:00,64.0,63.0,-100.00,SW,223,5.0,13.0,98,0.01,,,0.22,71.000000,,2013-01-10 19:13:00,
2013-01-10 13:43:00,64.0,63.0,-100.00,SSW,202,6.0,15.0,97,0.00,,,-99.99,38.000000,,2013-01-10 19:43:00,
2013-01-10 13:53:00,64.0,63.0,-100.00,SSW,202,6.0,15.0,97,0.00,,,-99.99,38.000000,,2013-01-10 19:53:00,
2013-01-10 14:03:00,64.0,63.0,-100.00,SSW,202,6.0,15.0,97,0.00,,,-99.99,38.000000,,2013-01-10 20:03:00,
2013-01-10 14:12:00,64.0,63.0,-100.00,SSW,202,6.0,15.0,97,0.00,,,-99.99,38.000000,,2013-01-10 20:12:00,
2013-01-10 14:33:00,64.0,63.0,-100.00,SSW,203,5.0,12.0,97,0.01,,,0.21,42.000000,,2013-01-10 20:33:00,
2013-01-10 14:43:00,64.0,63.0,-100.00,SSW,203,5.0,12.0,97,0.01,,,0.21,42.000000,,2013-01-10 20:43:00,
2013-01-10 14:53:00,64.0,63.0,-100.00,SSW,203,5.0,12.0,97,0.01,,,0.21,42.000000,,2013-01-10 20:53:00,
2013-01-10 15:03:00,64.0,63.0,-100.00,SSW,203,5.0,12.0,97,0.01,,,0.21,42.000000,,2013-01-10 21:03:00,
2013-01-10 15:12:00,64.0,63.0,-100.00,SSW,203,5.0,12.0,97,0.01,,,0.21,42.000000,,2013-01-10 21:12:00,
2013-01-10 15:33:00,64.0,64.0,-100.00,SSW,210,4.0,9.0,100,0.01,,,0.21,51.000000,,2013-01-10 21:33:00,
2013-01-10 15:43:00,64.0,64.0,-100.00,SSW,210,4.0,9.0,100,0.01,,,0.21,51.000000,,2013-01-10 21:43:00,
2013-01-10 15:53:00,64.0,64.0,-100.00,SSW,210,4.0,9.0,100,0.01,,,0.21,51.000000,,2013-01-10 21:53:00,
2013-01-10 16:03:00,64.0,64.0,-100.00,SSW,210,4.0,9.0,100,0.01,,,0.21,51.000000,,2013-01-10 22:03:00,
2013-01-10 16:12:00,64.0,64.0,-100.00,SSW,210,4.0,9.0,100,0.01,,,0.21,51.000000,,2013-01-10 22:12:00,
2013-01-10 16:44:00,64.0,64.0,-100.00,SSW,204,6.0,9.0,100,0.00,,,0.20,31.000000,,2013-01-10 22:44:00,
2013-01-10 17:02:00,64.0,64.0,-100.00,SSW,204,6.0,9.0,100,0.00,,,0.20,31.000000,,2013-01-10 23:02:00,
2013-01-10 17:12:00,64.0,64.0,-100.00,SSW,204,6.0,9.0,100,0.00,,,0.20,31.000000,,2013-01-10 23:12:00,
2013-01-10 17:43:00,65.0,65.0,-100.00,SW,216,9.0,17.0,99,0.01,,,0.21,13.000000,,2013-01-10 23:43:00,
2013-01-10 17:53:00,65.0,65.0,-100.00,SW,216,9.0,17.0,99,0.01,,,0.21,13.000000,,2013-01-10 23:53:00,
2013-01-10 18:03:00,65.0,65.0,-100.00,SW,216,9.0,17.0,99,0.01,,,0.21,13.000000,,2013-01-11 00:03:00,
2013-01-10 18:12:00,65.0,65.0,-100.00,SW,216,9.0,17.0,99,0.01,,,0.21,13.000000,,2013-01-11 00:12:00,
2013-01-10 18:43:00,66.0,64.0,-100.00,SSW,206,11.0,29.0,94,0.00,,,0.20,1.000000,,2013-01-11 00:43:00,
2013-01-10 18:53:00,66.0,64.0,-100.00,SSW,206,11.0,29.0,94,0.00,,,0.20,1.000000,,2013-01-11 00:53:00,
2013-01-10 19:03:00,66.0,64.0,-100.00,SSW,206,11.0,29.0,94,0.00,,,0.20,1.000000,,2013-01-11 01:03:00,
2013-01-10 19:13:00,66.0,64.0,-100.00,SSW,206,11.0,29.0,94,0.00,,,0.20,1.000000,,2013-01-11 01:13:00,
2013-01-10 19:34:00,67.0,64.0,-100.00,SSW,200,14.0,31.0,90,0.01,,,0.20,1.000000,,2013-01-11 01:34:00,
2013-01-10 19:43:00,67.0,64.0,-100.00,SSW,200,14.0,31.0,90,0.01,,,0.20,1.000000,,2013-01-11 01:43:00,
2013-01-10 19:53:00,67.0,64.0,-100.00,SSW,200,14.0,31.0,90,0.01,,,0.20,1.000000,,2013-01-11 01:53:00,
2013-01-10 20:03:00,67.0,64.0,-100.00,SSW,200,14.0,31.0,90,0.01,,,0.20,1.000000,,2013-01-11 02:03:00,
2013-01-10 20:13:00,67.0,64.0,-100.00,SSW,200,14.0,31.0,90,0.01,,,0.20,1.000000,,2013-01-11 02:13:00,
2013-01-10 20:44:00,67.0,63.0,-100.00,SSW,200,12.0,26.0,88,0.00,,,0.19,1.000000,,2013-01-11 02:44:00,
2013-01-10 20:54:00,67.0,63.0,-100.00,SSW,200,12.0,26.0,88,0.00,,,0.19,1.000000,,2013-01-11 02:54:00,
2013-01-10 21:02:00,67.0,63.0,-100.00,SSW,200,12.0,26.0,88,0.00,,,0.19,1.000000,,2013-01-11 03:02:00,
2013-01-10 21:12:00,67.0,63.0,-100.00,SSW,200,12.0,26.0,88,0.00,,,0.19,1.000000,,2013-01-11 03:12:00,
2013-01-10 21:33:00,68.0,63.0,-100.00,SSW,195,11.0,22.0,84,0.01,,,0.19,1.000000,,2013-01-11 03:33:00,
2013-01-10 21:43:00,68.0,63.0,-100.00,SSW,195,11.0,22.0,84,0.01,,,0.19,1.000000,,2013-01-11 03:43:00,
2013-01-10 21:53:00,68.0,63.0,-100.00,SSW,195,11.0,22.0,84,0.01,,,0.19,1.000000,,2013-01-11 03:53:00,
2013-01-10 22:02:00,68.0,63.0,-100.00,SSW,195,11.0,22.0,84,0.01,,,0.19,1.000000,,2013-01-11 04:02:00,
2013-01-10 22:12:00,68.0,63.0,-100.00,SSW,195,11.0,22.0,84,0.01,,,0.19,1.000000,,2013-01-11 04:12:00,
2013-01-10 22:33:00,68.0,63.0,-100.00,South,188,11.0,20.0,84,0.00,,,0.18,1.000000,,2013-01-11 04:33:00,
2013-01-10 22:43:00,68.0,63.0,-100.00,South,188,11.0,20.0,84,0.00,,,0.18,1.000000,,2013-01-11 04:43:00,
2013-01-10 22:53:00,68.0,63.0,-100.00,South,188,11.0,20.0,84,0.00,,,0.18,1.000000,,2013-01-11 04:53:00,
2013-01-10 23:03:00,68.0,63.0,-100.00,South,188,11.0,20.0,84,0.00,,,0.18,1.000000,,2013-01-11 05:03:00,
2013-01-10 23:12:00,68.0,63.0,-100.00,South,188,11.0,20.0,84,0.00,,,0.18,1.000000,,2013-01-11 05:12:00,
2013-01-10 23:33:00,68.0,63.0,-100.00,South,182,14.0,25.0,83,0.01,,,0.18,1.000000,,2013-01-11 05:33:00,
2013-01-10 23:43:00,68.0,63.0,-100.00,South,182,14.0,25.0,83,0.01,,,0.18,1.000000,,2013-01-11 05:43:00,
2013-01-10 23:53:00,68.0,63.0,-100.00,South,182,14.0,25.0,83,0.01,,,0.18,1.000000,,2013-01-11 05:53:00,